Time,TemperatureF,DewpointF,PressureIn,WindDirection,WindDirectionDegrees,WindSpeedMPH,WindSpeedGustMPH,Humidity,HourlyPrecipIn,Conditions,Clouds,dailyrainin,SoftwareType,DateUTC
2013-02-01 06:00:00,23.4,14.1,29.42,West,270,1.1,1.1,67,0.00,,,0.00,WUHU216HW,2013-02-01 11:00:00,
2013-02-01 06:05:00,23.2,13.9,29.43,West,270,2.5,4.0,67,0.00,,,0.00,WUHU216HW,2013-02-01 11:05:00,
2013-02-01 06:10:00,23.2,14.2,29.43,West,270,2.5,4.0,68,0.00,,,0.00,WUHU216HW,2013-02-01 11:10:00,
2013-02-01 06:15:00,23.4,14.4,29.43,West,270,3.8,4.7,68,0.00,,,0.00,WUHU216HW,2013-02-01 11:15:00,
2013-02-01 06:20:00,23.4,14.4,29.43,West,270,3.1,4.7,68,0.00,,,0.00,WUHU216HW,2013-02-01 11:20:00,
2013-02-01 06:25:00,23.2,14.2,29.43,West,270,2.0,4.5,68,0.00,,,0.00,WUHU216HW,2013-02-01 11:25:00,
2013-02-01 06:30:00,23.2,14.2,29.44,West,270,4.0,5.1,68,0.00,,,0.00,WUHU216HW,2013-02-01 11:30:00,
2013-02-01 06:35:00,23.2,14.2,29.44,West,270,1.8,5.1,68,0.00,,,0.00,WUHU216HW,2013-02-01 11:35:00,
2013-02-01 06:40:00,23.2,14.2,29.44,West,270,1.9,3.6,68,0.00,,,0.00,WUHU216HW,2013-02-01 11:40:00,
2013-02-01 06:45:00,23.0,14.0,29.45,West,270,2.2,3.6,68,0.00,,,0.00,WUHU216HW,2013-02-01 11:45:00,
2013-02-01 06:50:00,23.0,14.0,29.45,West,270,1.0,5.8,68,0.00,,,0.00,WUHU216HW,2013-02-01 11:50:00,
2013-02-01 06:55:00,23.0,14.0,29.45,West,270,2.7,5.8,68,0.00,,,0.00,WUHU216HW,2013-02-01 11:55:00,
2013-02-01 07:00:00,23.0,14.0,29.45,West,270,1.3,3.1,68,0.00,,,0.00,WUHU216HW,2013-02-01 12:00:00,
2013-02-01 07:05:00,23.0,14.0,29.46,West,270,2.2,4.0,68,0.00,,,0.00,WUHU216HW,2013-02-01 12:05:00,
2013-02-01 07:10:00,23.0,14.0,29.46,West,270,1.8,4.0,68,0.00,,,0.00,WUHU216HW,2013-02-01 12:10:00,
2013-02-01 07:15:00,23.0,14.4,29.46,West,270,2.4,4.7,69,0.00,,,0.00,WUHU216HW,2013-02-01 12:15:00,
2013-02-01 07:20:00,23.0,14.4,29.47,West,270,1.4,4.7,69,0.00,,,0.00,WUHU216HW,2013-02-01 12:20:00,
2013-02-01 07:25:00,23.2,14.6,29.47,West,270,0.8,3.1,69,0.00,,,0.00,WUHU216HW,2013-02-01 12:25:00,
2013-02-01 07:30:00,23.2,14.6,29.47,West,270,1.5,2.5,69,0.00,,,0.00,WUHU216HW,2013-02-01 12:30:00,
2013-02-01 07:35:00,23.2,14.6,29.47,West,270,1.3,3.1,69,0.00,,,0.00,WUHU216HW,2013-02-01 12:35:00,
2013-02-01 07:40:00,23.4,14.8,29.47,West,270,1.6,3.4,69,0.00,,,0.00,WUHU216HW,2013-02-01 12:40:00,
2013-02-01 07:45:00,23.4,14.8,29.48,West,270,1.1,5.4,69,0.00,,,0.00,WUHU216HW,2013-02-01 12:45:00,
2013-02-01 07:50:00,23.4,14.4,29.48,West,270,1.8,5.4,68,0.00,,,0.00,WUHU216HW,2013-02-01 12:50:00,
2013-02-01 07:55:00,23.6,14.6,29.48,West,270,0.8,3.4,68,0.00,,,0.00,WUHU216HW,2013-02-01 12:55:00,
2013-02-01 08:00:00,23.9,15.2,29.48,West,270,1.6,1.8,69,0.00,,,0.00,WUHU216HW,2013-02-01 13:00:00,
2013-02-01 08:05:00,23.9,15.2,29.49,West,270,2.2,3.8,69,0.00,,,0.00,WUHU216HW,2013-02-01 13:05:00,
2013-02-01 08:10:00,24.1,15.0,29.49,West,270,1.8,3.8,68,0.00,,,0.00,WUHU216HW,2013-02-01 13:10:00,
2013-02-01 08:15:00,24.5,15.4,29.49,West,270,1.3,2.2,68,0.00,,,0.00,WUHU216HW,2013-02-01 13:15:00,
2013-02-01 08:20:00,24.7,14.9,29.49,West,270,2.0,5.4,66,0.00,,,0.00,WUHU216HW,2013-02-01 13:20:00,
2013-02-01 08:25:00,24.7,14.9,29.49,West,270,2.0,5.4,66,0.00,,,0.00,WUHU216HW,2013-02-01 13:25:00,
2013-02-01 08:30:00,24.8,15.0,29.49,West,270,0.7,2.9,66,0.00,,,0.00,WUHU216HW,2013-02-01 13:30:00,
2013-02-01 08:35:00,24.8,15.0,29.50,West,270,2.0,5.1,66,0.00,,,0.00,WUHU216HW,2013-02-01 13:35:00,
2013-02-01 08:40:00,25.0,15.2,29.49,West,270,0.8,5.1,66,0.00,,,0.00,WUHU216HW,2013-02-01 13:40:00,
2013-02-01 08:45:00,25.2,15.4,29.49,West,270,1.5,2.5,66,0.00,,,0.00,WUHU216HW,2013-02-01 13:45:00,
2013-02-01 08:50:00,25.4,15.6,29.49,West,270,1.4,2.5,66,0.00,,,0.00,WUHU216HW,2013-02-01 13:50:00,
2013-02-01 08:55:00,25.6,15.0,29.49,West,270,1.3,4.7,64,0.00,,,0.00,WUHU216HW,2013-02-01 13:55:00,
2013-02-01 09:00:00,25.6,14.3,29.49,West,270,4.0,4.7,62,0.00,,,0.00,WUHU216HW,2013-02-01 14:00:00,
2013-02-01 09:05:00,25.7,15.2,29.48,West,270,1.3,4.7,64,0.00,,,0.00,WUHU216HW,2013-02-01 14:05:00,
2013-02-01 09:10:00,25.9,14.7,29.48,West,270,2.2,4.7,62,0.00,,,0.00,WUHU216HW,2013-02-01 14:10:00,
2013-02-01 09:15:00,25.9,14.7,29.48,West,270,1.0,2.9,62,0.00,,,0.00,WUHU216HW,2013-02-01 14:15:00,
2013-02-01 09:20:00,25.9,15.0,29.48,West,270,2.0,3.8,63,0.00,,,0.00,WUHU216HW,2013-02-01 14:20:00,
2013-02-01 09:25:00,25.7,14.1,29.48,West,270,2.5,3.8,61,0.00,,,0.00,WUHU216HW,2013-02-01 14:25:00,
2013-02-01 09:30:00,25.6,14.0,29.48,West,270,1.3,4.0,61,0.00,,,0.00,WUHU216HW,2013-02-01 14:30:00,
2013-02-01 09:35:00,25.7,14.1,29.48,West,270,3.1,4.0,61,0.00,,,0.00,WUHU216HW,2013-02-01 14:35:00,
2013-02-01 09:40:00,25.9,14.7,29.48,West,270,1.2,3.1,62,0.00,,,0.00,WUHU216HW,2013-02-01 14:40:00,
2013-02-01 09:45:00,26.3,14.9,29.48,West,270,2.5,3.1,62,0.00,,,0.00,WUHU216HW,2013-02-01 14:45:00,
2013-02-01 09:50:00,26.5,15.1,29.49,West,270,1.3,3.1,62,0.00,,,0.00,WUHU216HW,2013-02-01 14:50:00,
2013-02-01 09:55:00,26.6,15.3,29.49,West,270,2.7,3.6,62,0.00,,,0.00,WUHU216HW,2013-02-01 14:55:00,
2013-02-01 10:00:00,26.6,13.8,29.49,West,270,2.5,3.6,58,0.00,,,0.00,WUHU216HW,2013-02-01 15:00:00,
2013-02-01 10:05:00,26.5,14.8,29.49,West,270,0.9,3.6,61,0.00,,,0.00,WUHU216HW,2013-02-01 15:05:00,
2013-02-01 10:10:00,26.6,14.9,29.49,West,270,2.0,3.4,61,0.00,,,0.00,WUHU216HW,2013-02-01 15:10:00,
2013-02-01 10:15:00,26.8,15.1,29.49,West,270,1.8,4.7,61,0.00,,,0.00,WUHU216HW,2013-02-01 15:15:00,
2013-02-01 10:20:00,27.0,15.7,29.49,West,270,0.9,4.7,62,0.00,,,0.00,WUHU216HW,2013-02-01 15:20:00,
2013-02-01 10:25:00,27.2,14.7,29.49,West,270,1.4,3.4,59,0.00,,,0.00,WUHU216HW,2013-02-01 15:25:00,
2013-02-01 10:30:00,27.0,14.9,29.49,West,270,2.5,3.4,60,0.00,,,0.00,WUHU216HW,2013-02-01 15:30:00,
2013-02-01 10:35:00,27.0,14.5,29.50,West,270,2.6,4.0,59,0.00,,,0.00,WUHU216HW,2013-02-01 15:35:00,
2013-02-01 10:40:00,27.2,14.7,29.50,West,270,1.3,4.0,59,0.00,,,0.00,WUHU216HW,2013-02-01 15:40:00,
2013-02-01 10:45:00,27.4,14.9,29.50,West,270,1.0,5.4,59,0.00,,,0.00,WUHU216HW,2013-02-01 15:45:00,
2013-02-01 10:50:00,27.4,14.0,29.49,West,270,1.0,5.4,57,0.00,,,0.00,WUHU216HW,2013-02-01 15:50:00,
2013-02-01 10:55:00,27.5,14.7,29.50,West,270,2.5,4.0,58,0.00,,,0.00,WUHU216HW,2013-02-01 15:55:00,
2013-02-01 11:00:00,27.4,13.2,29.50,West,270,1.1,4.3,55,0.00,,,0.00,WUHU216HW,2013-02-01 16:00:00,
2013-02-01 11:05:00,27.5,12.6,29.50,West,270,3.6,4.3,53,0.00,,,0.00,WUHU216HW,2013-02-01 16:05:00,
2013-02-01 11:10:00,27.2,11.0,29.50,West,270,2.3,4.9,50,0.00,,,0.00,WUHU216HW,2013-02-01 16:10:00,
2013-02-01 11:15:00,27.4,13.2,29.50,West,270,1.8,4.9,55,0.00,,,0.00,WUHU216HW,2013-02-01 16:15:00,
2013-02-01 11:20:00,27.7,13.6,29.50,West,270,1.3,3.1,55,0.00,,,0.00,WUHU216HW,2013-02-01 16:20:00,
2013-02-01 11:25:00,27.7,14.1,29.49,West,270,1.8,3.4,56,0.00,,,0.00,WUHU216HW,2013-02-01 16:25:00,
2013-02-01 11:30:00,27.7,13.1,29.49,West,270,2.0,4.3,54,0.00,,,0.00,WUHU216HW,2013-02-01 16:30:00,
2013-02-01 11:35:00,27.7,12.8,29.49,West,270,2.3,4.3,53,0.00,,,0.00,WUHU216HW,2013-02-01 16:35:00,
2013-02-01 11:40:00,27.5,13.0,29.49,West,270,2.0,4.3,54,0.00,,,0.00,WUHU216HW,2013-02-01 16:40:00,
2013-02-01 11:45:00,27.4,12.4,29.49,West,270,2.2,4.0,53,0.00,,,0.00,WUHU216HW,2013-02-01 16:45:00,
2013-02-01 11:50:00,27.2,12.6,29.49,West,270,1.6,3.4,54,0.00,,,0.00,WUHU216HW,2013-02-01 16:50:00,
2013-02-01 11:55:00,27.4,13.2,29.49,West,270,0.9,3.4,55,0.00,,,0.00,WUHU216HW,2013-02-01 16:55:00,
2013-02-01 12:00:00,27.5,13.9,29.48,West,270,0.9,1.8,56,0.00,,,0.00,WUHU216HW,2013-02-01 17:00:00,
2013-02-01 12:05:00,27.9,12.2,29.48,West,270,1.7,3.6,51,0.00,,,0.00,WUHU216HW,2013-02-01 17:05:00,
2013-02-01 12:10:00,28.1,12.3,29.48,West,270,1.3,3.6,51,0.00,,,0.00,WUHU216HW,2013-02-01 17:10:00,
2013-02-01 12:15:00,28.1,10.9,29.47,West,270,2.2,3.1,48,0.00,,,0.00,WUHU216HW,2013-02-01 17:15:00,
2013-02-01 12:20:00,28.3,10.5,29.47,West,270,5.4,5.4,47,0.00,,,0.00,WUHU216HW,2013-02-01 17:20:00,
2013-02-01 12:25:00,28.3,11.1,29.47,West,270,2.5,5.4,48,0.00,,,0.00,WUHU216HW,2013-02-01 17:25:00,
2013-02-01 12:30:00,28.4,11.3,29.47,West,270,3.4,5.4,48,0.00,,,0.00,WUHU216HW,2013-02-01 17:30:00,
2013-02-01 12:35:00,28.4,10.7,29.47,West,270,1.8,4.7,47,0.00,,,0.00,WUHU216HW,2013-02-01 17:35:00,
2013-02-01 12:40:00,28.3,10.5,29.47,West,270,3.4,4.7,47,0.00,,,0.00,WUHU216HW,2013-02-01 17:40:00,
2013-02-01 12:45:00,28.1,10.9,29.47,West,270,1.7,4.5,48,0.00,,,0.00,WUHU216HW,2013-02-01 17:45:00,
2013-02-01 12:50:00,27.9,10.7,29.48,West,270,4.5,4.5,48,0.00,,,0.00,WUHU216HW,2013-02-01 17:50:00,
2013-02-01 12:55:00,27.9,11.2,29.48,West,270,1.2,4.5,49,0.00,,,0.00,WUHU216HW,2013-02-01 17:55:00,
2013-02-01 13:00:00,27.9,11.7,29.48,West,270,2.0,4.5,50,0.00,,,0.00,WUHU216HW,2013-02-01 18:00:00,
2013-02-01 13:05:00,27.7,11.5,29.48,West,270,1.4,4.7,50,0.00,,,0.00,WUHU216HW,2013-02-01 18:05:00,
2013-02-01 13:10:00,27.7,11.5,29.48,West,270,1.8,4.7,50,0.00,,,0.00,WUHU216HW,2013-02-01 18:10:00,
2013-02-01 13:15:00,27.4,11.2,29.49,West,270,2.7,4.3,50,0.00,,,0.00,WUHU216HW,2013-02-01 18:15:00,
2013-02-01 13:20:00,27.0,11.3,29.49,West,270,1.6,4.3,51,0.00,,,0.00,WUHU216HW,2013-02-01 18:20:00,
2013-02-01 13:25:00,26.8,11.1,29.49,West,270,1.4,6.3,51,0.00,,,0.00,WUHU216HW,2013-02-01 18:25:00,
2013-02-01 13:30:00,27.0,11.6,29.49,West,270,2.7,6.3,52,0.00,,,0.00,WUHU216HW,2013-02-01 18:30:00,
2013-02-01 13:35:00,27.0,11.6,29.49,West,270,0.7,3.1,52,0.00,,,0.00,WUHU216HW,2013-02-01 18:35:00,
2013-02-01 13:40:00,27.4,12.0,29.49,West,270,1.1,3.4,52,0.00,,,0.00,WUHU216HW,2013-02-01 18:40:00,
2013-02-01 13:45:00,27.9,12.2,29.49,West,270,2.3,3.4,51,0.00,,,0.00,WUHU216HW,2013-02-01 18:45:00,
2013-02-01 13:50:00,28.4,11.3,29.49,West,270,2.1,5.1,48,0.00,,,0.00,WUHU216HW,2013-02-01 18:50:00,
2013-02-01 13:55:00,29.0,10.7,29.49,WNW,286,2.2,5.1,46,0.00,,,0.00,WUHU216HW,2013-02-01 18:55:00,
2013-02-01 14:00:00,29.0,10.7,29.49,WNW,293,2.0,4.7,46,0.00,,,0.00,WUHU216HW,2013-02-01 19:00:00,
2013-02-01 14:05:00,28.4,10.3,29.50,WNW,293,2.4,5.1,46,0.00,,,0.00,WUHU216HW,2013-02-01 19:05:00,
2013-02-01 14:10:00,28.1,10.9,29.50,WNW,293,1.5,5.1,48,0.00,,,0.00,WUHU216HW,2013-02-01 19:10:00,
2013-02-01 14:15:00,28.1,11.3,29.50,WNW,293,1.1,3.8,49,0.00,,,0.00,WUHU216HW,2013-02-01 19:15:00,
2013-02-01 14:20:00,28.3,12.1,29.51,WNW,293,1.6,2.5,50,0.00,,,0.00,WUHU216HW,2013-02-01 19:20:00,
2013-02-01 14:25:00,28.4,12.7,29.51,WNW,293,1.0,2.5,51,0.00,,,0.00,WUHU216HW,2013-02-01 19:25:00,
2013-02-01 14:30:00,28.8,13.4,29.51,WNW,293,3.1,3.1,52,0.00,,,0.00,WUHU216HW,2013-02-01 19:30:00,
2013-02-01 14:35:00,29.2,11.3,29.51,WNW,293,1.9,3.4,47,0.00,,,0.00,WUHU216HW,2013-02-01 19:35:00,
2013-02-01 14:40:00,29.0,10.7,29.51,NNW,338,2.2,4.9,46,0.00,,,0.00,WUHU216HW,2013-02-01 19:40:00,
2013-02-01 14:45:00,28.8,11.5,29.51,NNW,338,1.1,4.9,48,0.00,,,0.00,WUHU216HW,2013-02-01 19:45:00,
2013-02-01 14:50:00,28.8,11.1,29.52,NNW,338,1.6,5.1,47,0.00,,,0.00,WUHU216HW,2013-02-01 19:50:00,
2013-02-01 14:55:00,28.4,10.3,29.52,NNW,338,2.2,5.1,46,0.00,,,0.00,WUHU216HW,2013-02-01 19:55:00,
2013-02-01 15:00:00,28.1,9.4,29.52,NNW,338,2.4,5.1,45,0.00,,,0.00,WUHU216HW,2013-02-01 20:00:00,
2013-02-01 15:05:00,27.7,10.0,29.53,NNW,338,1.1,5.1,47,0.00,,,0.00,WUHU216HW,2013-02-01 20:05:00,
2013-02-01 15:10:00,27.5,10.9,29.54,NNW,338,2.1,5.4,49,0.00,,,0.00,WUHU216HW,2013-02-01 20:10:00,
2013-02-01 15:15:00,27.0,12.1,29.54,NNW,338,2.2,5.4,53,0.00,,,0.00,WUHU216HW,2013-02-01 20:15:00,
2013-02-01 15:20:00,26.5,12.3,29.55,NNW,338,0.9,4.5,55,0.00,,,0.00,WUHU216HW,2013-02-01 20:20:00,
2013-02-01 15:25:00,26.3,13.1,29.55,NNW,338,2.0,3.6,57,0.00,,,0.00,WUHU216HW,2013-02-01 20:25:00,
2013-02-01 15:30:00,25.7,13.0,29.55,NNW,338,1.6,3.6,58,0.00,,,0.00,WUHU216HW,2013-02-01 20:30:00,
2013-02-01 15:35:00,25.6,13.2,29.56,NNW,338,0.6,3.4,59,0.00,,,0.00,WUHU216HW,2013-02-01 20:35:00,
2013-02-01 15:40:00,25.6,13.2,29.56,NNW,338,0.8,2.2,59,0.00,,,0.00,WUHU216HW,2013-02-01 20:40:00,
2013-02-01 15:45:00,25.9,13.5,29.56,NNW,338,2.5,3.4,59,0.00,,,0.00,WUHU216HW,2013-02-01 20:45:00,
2013-02-01 15:50:00,26.1,13.7,29.56,NNW,338,0.8,3.4,59,0.00,,,0.00,WUHU216HW,2013-02-01 20:50:00,
2013-02-01 15:55:00,26.3,13.9,29.57,NNW,338,2.0,2.5,59,0.00,,,0.00,WUHU216HW,2013-02-01 20:55:00,
2013-02-01 16:00:00,26.5,13.1,29.57,NNW,338,4.5,4.5,57,0.00,,,0.00,WUHU216HW,2013-02-01 21:00:00,
2013-02-01 16:05:00,26.3,13.4,29.58,NNW,338,2.0,4.5,58,0.00,,,0.00,WUHU216HW,2013-02-01 21:05:00,
2013-02-01 16:10:00,25.9,16.0,29.58,NNW,338,1.4,4.5,66,0.00,,,0.00,WUHU216HW,2013-02-01 21:10:00,
2013-02-01 16:15:00,25.2,15.7,29.58,NNW,338,2.0,4.0,67,0.00,,,0.00,WUHU216HW,2013-02-01 21:15:00,
2013-02-01 16:20:00,24.7,15.8,29.59,NNW,338,3.4,4.3,69,0.00,,,0.00,WUHU216HW,2013-02-01 21:20:00,
2013-02-01 16:25:00,24.1,15.0,29.59,NNW,338,1.0,4.3,68,0.00,,,0.00,WUHU216HW,2013-02-01 21:25:00,
2013-02-01 16:30:00,24.1,14.7,29.60,NNW,338,1.6,3.4,67,0.00,,,0.00,WUHU216HW,2013-02-01 21:30:00,
2013-02-01 16:35:00,23.9,14.1,29.60,NNW,338,1.4,3.6,66,0.00,,,0.00,WUHU216HW,2013-02-01 21:35:00,
2013-02-01 16:40:00,23.9,13.9,29.60,NNW,338,1.1,3.6,65,0.00,,,0.00,WUHU216HW,2013-02-01 21:40:00,
2013-02-01 16:46:00,23.9,13.2,29.61,NNW,338,1.3,2.7,63,0.00,,,0.00,WUHU216HW,2013-02-01 21:46:00,
2013-02-01 16:51:00,23.9,13.2,29.61,NNW,338,0.4,2.7,63,0.00,,,0.00,WUHU216HW,2013-02-01 21:51:00,
2013-02-01 16:56:00,24.1,13.3,29.61,NNW,338,0.7,1.6,63,0.00,,,0.00,WUHU216HW,2013-02-01 21:56:00,
2013-02-01 17:01:00,24.3,13.2,29.62,NNW,338,1.0,2.2,62,0.00,,,0.00,WUHU216HW,2013-02-01 22:01:00,
2013-02-01 17:06:00,24.1,13.0,29.62,NNW,338,1.7,4.7,62,0.00,,,0.00,WUHU216HW,2013-02-01 22:06:00,
2013-02-01 17:11:00,23.9,12.4,29.62,NNW,338,1.6,4.7,61,0.00,,,0.00,WUHU216HW,2013-02-01 22:11:00,
2013-02-01 17:15:00,23.9,12.8,29.62,NNW,338,1.3,4.0,62,0.00,,,0.00,WUHU216HW,2013-02-01 22:15:00,
2013-02-01 17:20:00,23.8,12.3,29.63,NNW,338,0.5,4.0,61,0.00,,,0.00,WUHU216HW,2013-02-01 22:20:00,
2013-02-01 17:25:00,23.6,12.1,29.63,NNW,338,1.6,2.7,61,0.00,,,0.00,WUHU216HW,2013-02-01 22:25:00,
2013-02-01 17:31:00,23.8,12.6,29.64,NNW,338,0.7,2.7,62,0.00,,,0.00,WUHU216HW,2013-02-01 22:31:00,
2013-02-01 17:35:00,23.6,11.7,29.64,NNW,338,2.2,3.6,60,0.00,,,0.00,WUHU216HW,2013-02-01 22:35:00,
2013-02-01 17:41:00,23.4,11.2,29.65,NNW,338,1.4,3.6,59,0.00,,,0.00,WUHU216HW,2013-02-01 22:41:00,
2013-02-01 17:46:00,23.4,11.2,29.65,NNW,338,1.6,3.4,59,0.00,,,0.00,WUHU216HW,2013-02-01 22:46:00,
2013-02-01 17:51:00,23.2,11.0,29.66,NNW,338,1.9,3.6,59,0.00,,,0.00,WUHU216HW,2013-02-01 22:51:00,
2013-02-01 17:56:00,23.2,11.0,29.66,NNW,338,0.9,4.0,59,0.00,,,0.00,WUHU216HW,2013-02-01 22:56:00,
2013-02-01 18:00:00,23.0,10.4,29.67,NNW,338,1.1,4.0,58,0.00,,,0.00,WUHU216HW,2013-02-01 23:00:00,
2013-02-01 18:05:00,22.9,10.2,29.67,NNW,338,0.8,3.1,58,0.00,,,0.00,WUHU216HW,2013-02-01 23:05:00,
2013-02-01 18:10:00,22.7,10.5,29.67,NNW,338,0.9,3.1,59,0.00,,,0.00,WUHU216HW,2013-02-01 23:10:00,
2013-02-01 18:15:00,22.7,10.1,29.68,NNW,338,3.8,3.8,58,0.00,,,0.00,WUHU216HW,2013-02-01 23:15:00,
2013-02-01 18:21:00,22.7,9.6,29.68,NNW,338,1.3,3.8,57,0.00,,,0.00,WUHU216HW,2013-02-01 23:21:00,
2013-02-01 18:26:00,22.7,9.3,29.68,NNW,338,1.9,3.8,56,0.00,,,0.00,WUHU216HW,2013-02-01 23:26:00,
2013-02-01 18:31:00,22.7,9.3,29.69,NNW,338,3.6,3.8,56,0.00,,,0.00,WUHU216HW,2013-02-01 23:31:00,
2013-02-01 18:36:00,22.5,9.5,29.70,NNW,338,2.5,6.9,57,0.00,,,0.00,WUHU216HW,2013-02-01 23:36:00,
2013-02-01 18:41:00,22.1,8.7,29.70,NNW,338,2.3,6.9,56,0.00,,,0.00,WUHU216HW,2013-02-01 23:41:00,
2013-02-01 18:46:00,22.1,9.1,29.70,NNW,338,1.8,3.6,57,0.00,,,0.00,WUHU216HW,2013-02-01 23:46:00,
2013-02-01 18:51:00,22.0,9.0,29.70,NNW,338,1.3,2.7,57,0.00,,,0.00,WUHU216HW,2013-02-01 23:51:00,
2013-02-01 18:56:00,22.0,8.6,29.71,NNW,338,1.1,2.7,56,0.00,,,0.00,WUHU216HW,2013-02-01 23:56:00,
2013-02-01 19:01:00,21.8,8.8,29.71,NNW,338,1.1,2.0,57,0.00,,,0.00,WUHU216HW,2013-02-02 00:01:00,
2013-02-01 19:06:00,21.8,8.8,29.71,NNW,338,1.1,2.5,57,0.00,,,0.00,WUHU216HW,2013-02-02 00:06:00,
2013-02-01 19:11:00,21.6,9.0,29.71,NNW,338,1.1,2.5,58,0.00,,,0.00,WUHU216HW,2013-02-02 00:11:00,
2013-02-01 19:16:00,21.6,8.7,29.71,NNW,338,0.6,2.5,57,0.00,,,0.00,WUHU216HW,2013-02-02 00:16:00,
2013-02-01 19:21:00,21.4,8.9,29.72,NNW,338,0.6,2.2,58,0.00,,,0.00,WUHU216HW,2013-02-02 00:21:00,
2013-02-01 19:26:00,21.4,8.9,29.72,NNW,338,0.4,2.2,58,0.00,,,0.00,WUHU216HW,2013-02-02 00:26:00,
2013-02-01 19:31:00,21.4,8.9,29.72,NNW,338,1.8,1.8,58,0.00,,,0.00,WUHU216HW,2013-02-02 00:31:00,
2013-02-01 19:36:00,21.4,8.9,29.73,NNW,338,0.4,1.8,58,0.00,,,0.00,WUHU216HW,2013-02-02 00:36:00,
2013-02-01 19:41:00,21.4,8.9,29.72,NNW,338,0.2,1.8,58,0.00,,,0.00,WUHU216HW,2013-02-02 00:41:00,
2013-02-01 19:46:00,21.4,8.9,29.73,NNW,338,0.2,1.1,58,0.00,,,0.00,WUHU216HW,2013-02-02 00:46:00,
2013-02-01 19:51:00,21.4,8.9,29.73,NNW,338,0.7,1.3,58,0.00,,,0.00,WUHU216HW,2013-02-02 00:51:00,
2013-02-01 19:56:00,21.4,8.9,29.73,NNW,338,0.3,1.3,58,0.00,,,0.00,WUHU216HW,2013-02-02 00:56:00,
2013-02-01 20:01:00,21.4,9.3,29.73,NNW,338,0.8,1.1,59,0.00,,,0.00,WUHU216HW,2013-02-02 01:01:00,
2013-02-01 20:06:00,21.4,9.3,29.74,NNW,338,0.8,1.1,59,0.00,,,0.00,WUHU216HW,2013-02-02 01:06:00,
2013-02-01 20:11:00,21.6,9.5,29.73,NNW,338,0.7,1.3,59,0.00,,,0.00,WUHU216HW,2013-02-02 01:11:00,
2013-02-01 20:16:00,21.6,9.5,29.74,NNW,338,0.3,1.3,59,0.00,,,0.00,WUHU216HW,2013-02-02 01:16:00,
2013-02-01 20:21:00,21.6,9.5,29.74,NNW,338,0.7,0.7,59,0.00,,,0.00,WUHU216HW,2013-02-02 01:21:00,
2013-02-01 20:26:00,21.6,9.0,29.74,NNW,338,1.2,1.8,58,0.00,,,0.00,WUHU216HW,2013-02-02 01:26:00,
2013-02-01 20:31:00,21.6,9.0,29.74,NNW,338,1.3,2.5,58,0.00,,,0.00,WUHU216HW,2013-02-02 01:31:00,
2013-02-01 20:36:00,21.4,9.3,29.74,NNW,338,0.5,2.5,59,0.00,,,0.00,WUHU216HW,2013-02-02 01:36:00,
2013-02-01 20:41:00,21.2,9.1,29.75,NNW,338,0.4,1.8,59,0.00,,,0.00,WUHU216HW,2013-02-02 01:41:00,
2013-02-01 20:46:00,21.1,8.9,29.75,NNW,338,0.4,1.8,59,0.00,,,0.00,WUHU216HW,2013-02-02 01:46:00,
2013-02-01 20:52:00,20.9,8.7,29.75,NNW,338,0.4,1.8,59,0.00,,,0.00,WUHU216HW,2013-02-02 01:52:00,
2013-02-01 20:57:00,20.5,8.8,29.75,NNW,338,0.3,1.8,60,0.00,,,0.00,WUHU216HW,2013-02-02 01:57:00,
2013-02-01 21:02:00,20.5,9.2,29.75,NNW,338,0.0,1.3,61,0.00,,,0.00,WUHU216HW,2013-02-02 02:02:00,
2013-02-01 21:07:00,20.3,9.0,29.75,NNW,338,0.0,0.4,61,0.00,,,0.00,WUHU216HW,2013-02-02 02:07:00,
2013-02-01 21:12:00,20.3,9.0,29.75,NNW,338,0.6,1.1,61,0.00,,,0.00,WUHU216HW,2013-02-02 02:12:00,
2013-02-01 21:17:00,20.2,9.2,29.76,NNW,338,0.2,1.1,62,0.00,,,0.00,WUHU216HW,2013-02-02 02:17:00,
2013-02-01 21:22:00,20.2,9.2,29.76,NNW,338,0.2,0.2,62,0.00,,,0.00,WUHU216HW,2013-02-02 02:22:00,
2013-02-01 21:27:00,19.8,9.1,29.76,NNW,338,0.4,0.9,63,0.00,,,0.00,WUHU216HW,2013-02-02 02:27:00,
2013-02-01 21:32:00,19.8,9.1,29.76,NNW,338,0.3,0.9,63,0.00,,,0.00,WUHU216HW,2013-02-02 02:32:00,
2013-02-01 21:37:00,19.8,9.1,29.76,NNW,338,0.0,0.9,63,0.00,,,0.00,WUHU216HW,2013-02-02 02:37:00,
2013-02-01 21:42:00,19.6,8.7,29.76,NNW,338,0.4,1.6,62,0.00,,,0.00,WUHU216HW,2013-02-02 02:42:00,
2013-02-01 21:47:00,19.6,8.9,29.77,NNW,338,0.2,1.6,63,0.00,,,0.00,WUHU216HW,2013-02-02 02:47:00,
2013-02-01 21:52:00,19.6,8.9,29.77,NNW,338,2.5,2.5,63,0.00,,,0.00,WUHU216HW,2013-02-02 02:52:00,
2013-02-01 21:57:00,19.4,8.5,29.77,NNW,338,0.7,2.5,62,0.00,,,0.00,WUHU216HW,2013-02-02 02:57:00,
2013-02-01 22:02:00,19.6,8.7,29.77,NNW,338,1.1,2.5,62,0.00,,,0.00,WUHU216HW,2013-02-02 03:02:00,
2013-02-01 22:07:00,19.4,8.1,29.77,NNW,338,1.8,1.8,61,0.00,,,0.00,WUHU216HW,2013-02-02 03:07:00,
2013-02-01 22:12:00,19.4,7.4,29.77,NNW,338,1.3,3.6,59,0.00,,,0.00,WUHU216HW,2013-02-02 03:12:00,
2013-02-01 22:17:00,19.8,7.3,29.77,NNW,338,1.7,3.6,58,0.00,,,0.00,WUHU216HW,2013-02-02 03:17:00,
2013-02-01 22:22:00,19.8,7.3,29.77,NNW,338,0.4,3.1,58,0.00,,,0.00,WUHU216HW,2013-02-02 03:22:00,
2013-02-01 22:27:00,19.8,6.9,29.78,NNW,338,2.0,3.4,57,0.00,,,0.00,WUHU216HW,2013-02-02 03:27:00,
2013-02-01 22:32:00,19.8,7.3,29.78,NNW,338,0.6,3.4,58,0.00,,,0.00,WUHU216HW,2013-02-02 03:32:00,
2013-02-01 22:37:00,19.8,7.3,29.78,NNW,338,1.1,2.2,58,0.00,,,0.00,WUHU216HW,2013-02-02 03:37:00,
2013-02-01 22:42:00,19.8,7.3,29.78,NNW,338,0.4,2.2,58,0.00,,,0.00,WUHU216HW,2013-02-02 03:42:00,
2013-02-01 22:47:00,19.8,7.8,29.78,NNW,338,1.4,1.8,59,0.00,,,0.00,WUHU216HW,2013-02-02 03:47:00,
2013-02-01 22:52:00,19.8,8.1,29.78,NNW,338,0.9,1.8,60,0.00,,,0.00,WUHU216HW,2013-02-02 03:52:00,
2013-02-01 22:57:00,19.8,8.1,29.78,NNW,338,0.2,1.8,60,0.00,,,0.00,WUHU216HW,2013-02-02 03:57:00,
2013-02-01 23:02:00,19.6,8.3,29.78,NNW,338,0.0,0.2,61,0.00,,,0.00,WUHU216HW,2013-02-02 04:02:00,
2013-02-01 23:07:00,19.6,8.3,29.79,NNW,338,0.0,0.0,61,0.00,,,0.00,WUHU216HW,2013-02-02 04:07:00,
2013-02-01 23:12:00,19.4,8.1,29.79,NNW,338,0.0,0.0,61,0.00,,,0.00,WUHU216HW,2013-02-02 04:12:00,
2013-02-01 23:17:00,19.3,7.9,29.79,NNW,338,0.3,0.4,61,0.00,,,0.00,WUHU216HW,2013-02-02 04:17:00,
2013-02-01 23:22:00,19.3,7.9,29.79,NNW,338,0.7,0.7,61,0.00,,,0.00,WUHU216HW,2013-02-02 04:22:00,
2013-02-01 23:27:00,19.1,8.1,29.79,NNW,338,0.5,0.7,62,0.00,,,0.00,WUHU216HW,2013-02-02 04:27:00,
2013-02-01 23:32:00,19.1,7.7,29.79,NNW,338,0.2,1.1,61,0.00,,,0.00,WUHU216HW,2013-02-02 04:32:00,
2013-02-01 23:37:00,19.1,8.1,29.79,NNW,338,1.8,1.8,62,0.00,,,0.00,WUHU216HW,2013-02-02 04:37:00,
2013-02-01 23:42:00,19.1,8.1,29.80,NNW,338,0.6,1.8,62,0.00,,,0.00,WUHU216HW,2013-02-02 04:42:00,
2013-02-01 23:47:00,19.1,7.7,29.80,NNW,338,4.3,4.3,61,0.00,,,0.00,WUHU216HW,2013-02-02 04:47:00,
2013-02-01 23:52:00,19.1,7.7,29.80,NNW,338,0.8,4.3,61,0.00,,,0.00,WUHU216HW,2013-02-02 04:52:00,
2013-02-01 23:57:00,19.3,7.6,29.80,NNW,338,2.2,4.0,60,0.00,,,0.00,WUHU216HW,2013-02-02 04:57:00,